Latest Weather Observations for Weipa

IDQ60801

Issued at 1:32 pm EST Sunday 25 January 2015 (issued every 30 minutes, with the page automatically refreshed every 10 minutes)

About weather observations | Map of weather stations | Latest weather observations for QLD | Other Formats
Station Details ID: 027045 Name: WEIPA AERO Lat: -12.68 Lon: 141.92 Height: 17.96 m
Data from the previous 72 hours. | See also: Recent months at Weipa
Date/Time
EST
Temp
°C
App
Temp
°C
Dew
Point
Rel
Hum
%
Delta-T
°C
Wind Press
QNH
hPa
Press
MSL
hPa
Rain
since 9 am
mm
Dir
 
Spd
km/h
Gust
km/h
Spd
kts
Gust
kts
25/01:30pm 29.7 32.7 24.6 74 3.6 NW 17 26 9 14 1008.2 - 5.8
25/01:00pm 29.6 31.8 24.8 75 3.4 NNW 22 35 12 19 1008.5 - 5.8
25/12:30pm 29.5 33.2 25.1 77 3.1 WNW 15 30 8 16 1009.1 - 5.8
25/12:00pm 28.7 32.2 25.4 82 2.3 NW 17 28 9 15 1009.4 1009.2 5.8
25/11:30am 27.8 31.7 25.5 87 1.6 NNW 15 24 8 13 1009.9 - 5.8
25/11:08am 26.3 31.4 24.9 92 1.0 WNW 7 13 4 7 1010.1 - 5.8
25/11:00am 26.2 28.7 24.4 90 1.2 NNW 19 30 10 16 1010.2 - 5.8
25/10:41am 27.3 28.1 25.7 91 1.1 NW 32 52 17 28 1011.0 - 1.2
25/10:39am 29.2 30.7 25.6 81 2.5 NW 28 52 15 28 1010.8 - 0.0
25/10:30am 31.1 33.8 25.6 72 3.9 NW 22 32 12 17 1010.5 - 0.0
25/10:00am 29.9 33.1 25.6 78 3.0 NNW 19 26 10 14 1010.9 - 0.0
25/09:30am 29.1 32.3 25.6 81 2.5 NNW 19 28 10 15 1010.7 - 0.0
25/09:00am 28.0 32.4 25.7 87 1.6 NNW 13 20 7 11 1010.8 1010.6 5.0
25/08:30am 27.1 32.4 25.2 89 1.3 NNW 7 11 4 6 1010.7 - 5.0
25/08:00am 26.7 31.4 24.9 90 1.3 NW 9 13 5 7 1010.4 - 5.0
25/07:30am 26.4 31.5 24.9 91 1.0 NNW 7 13 4 7 1010.0 - 5.0
25/07:00am 26.2 31.0 25.1 94 0.8 N 9 11 5 6 1009.9 - 5.0
25/06:30am 26.1 30.6 25.2 95 0.6 NNW 11 17 6 9 1009.6 - 5.0
25/06:00am 26.2 31.1 25.2 94 0.7 N 9 17 5 9 1009.4 1009.2 5.0
25/05:30am 25.9 31.7 25.2 96 0.5 N 4 7 2 4 1009.1 - 4.8
25/05:00am 25.9 31.1 25.1 95 0.6 N 7 9 4 5 1009.1 - 4.8
25/04:30am 25.7 31.1 25.1 96 0.4 NNE 6 9 3 5 1008.9 - 4.8
25/04:00am 25.6 31.0 25.2 98 0.3 NNE 6 6 3 3 1008.7 - 4.8
25/03:30am 25.8 31.2 25.1 96 0.5 N 6 7 3 4 1008.7 - 4.6
25/03:00am 25.7 31.5 25.1 96 0.4 N 4 6 2 3 1008.7 1008.5 4.2
25/02:30am 25.7 31.1 25.1 96 0.4 N 6 7 3 4 1008.6 - 4.0
25/02:00am 25.7 31.1 25.1 96 0.4 N 6 9 3 5 1008.6 - 4.0
25/01:30am 25.8 31.1 25.2 96 0.4 N 7 11 4 6 1009.2 - 3.8
25/01:00am 25.9 31.2 25.2 96 0.5 N 7 11 4 6 1009.4 - 3.8
25/12:35am 25.8 31.1 25.0 95 0.6 N 6 11 3 6 1009.5 - 3.6
25/12:30am 25.8 31.1 24.9 95 0.6 N 6 11 3 6 1009.5 - 3.6
25/12:11am 25.9 31.0 24.9 94 0.7 N 7 9 4 5 1009.7 - 3.2
25/12:00am 25.8 31.1 25.0 95 0.6 NNE 6 9 3 5 1009.7 1009.5 3.0
 
Date/Time
EST
Temp
°C
App
Temp
°C
Dew
Point
Rel
Hum
%
Delta-T
°C
Wind Press
QNH
hPa
Press
MSL
hPa
Rain
since 9 am
mm
Dir
 
Spd
km/h
Gust
km/h
Spd
kts
Gust
kts
24/11:50pm 25.9 31.2 24.9 94 0.7 N 6 9 3 5 1009.8 - 3.0
24/11:30pm 25.9 31.0 24.9 94 0.7 N 7 11 4 6 1010.0 - 2.8
24/11:21pm 26.1 31.0 24.7 92 1.0 N 7 11 4 6 1010.0 - 2.6
24/11:00pm 25.8 30.9 24.7 94 0.8 N 6 7 3 4 1009.8 - 2.4
24/10:30pm 25.8 31.0 24.8 94 0.7 NNE 6 6 3 3 1009.6 - 2.4
24/10:00pm 26.1 31.6 24.6 91 1.0 NNE 4 6 2 3 1009.2 - 2.4
24/09:30pm 26.4 31.5 24.6 90 1.2 N 6 7 3 4 1009.0 - 2.4
24/09:00pm 26.8 31.4 24.2 86 1.8 NNW 7 9 4 5 1008.8 1008.6 2.4
24/08:30pm 26.8 30.6 24.1 85 1.9 NW 11 17 6 9 1008.5 - 2.4
24/08:00pm 27.2 30.1 23.9 82 2.3 NW 15 22 8 12 1008.5 - 2.4
24/07:30pm 27.4 29.7 24.1 82 2.3 NW 19 26 10 14 1008.5 - 2.4
24/07:00pm 27.7 30.0 24.4 82 2.3 NW 20 30 11 16 1008.3 - 2.4
24/06:30pm 27.7 29.6 24.4 82 2.3 NNW 22 32 12 17 1008.0 - 2.4
24/06:00pm 27.7 30.2 24.8 84 2.0 NNW 20 28 11 15 1007.9 1007.7 2.4
24/05:30pm 27.2 30.7 24.8 87 1.7 NW 15 20 8 11 1007.6 - 2.4
24/05:00pm 28.6 32.4 25.3 82 2.3 NW 15 24 8 13 1007.2 - 2.4
24/04:30pm 28.6 31.8 24.9 80 2.6 NW 17 22 9 12 1007.3 - 2.4
24/04:00pm 28.6 31.9 25.1 81 2.5 NW 17 26 9 14 1007.1 - 2.4
24/03:30pm 28.1 31.7 25.6 86 1.8 NW 17 22 9 12 1007.0 - 2.4
24/03:19pm 27.7 30.4 25.0 85 1.9 NNW 20 32 11 17 1007.1 - 2.4
24/03:04pm 26.6 25.2 24.3 87 1.6 NNW 39 59 21 32 1007.3 - 2.4
24/03:00pm 26.1 23.7 23.9 88 1.5 NW 43 - 23 - - 1007.2 2.0
24/02:59pm 26.2 23.0 23.5 85 1.8 NW 46 59 25 32 1007.4 - 2.0
24/02:48pm 30.8 31.8 24.8 70 4.2 NW 28 46 15 25 1006.8 - 1.2
24/02:30pm 30.6 32.1 25.0 72 3.9 NW 26 37 14 20 1006.8 - 1.2
24/02:00pm 28.7 29.2 23.9 75 3.3 NNW 28 48 15 26 1007.1 - 1.2
24/01:59pm 28.8 29.3 23.9 75 3.4 NNW 28 48 15 26 1007.1 - 1.2
24/01:30pm 30.7 31.9 23.8 66 4.8 NW 24 37 13 20 1007.2 - 1.0
24/01:00pm 30.2 31.5 24.1 70 4.2 NW 24 35 13 19 1007.6 - 1.0
24/12:30pm 29.4 32.8 25.8 81 2.6 NW 19 26 10 14 1007.8 - 1.0
24/12:02pm 28.2 32.6 25.7 86 1.8 NW 13 19 7 10 1008.1 - 1.0
24/12:00pm 28.1 32.6 25.8 87 1.6 NW 13 19 7 10 1008.1 1007.9 1.0
24/11:42am 26.9 29.4 24.8 88 1.5 NW 20 43 11 23 1008.1 - 1.0
24/11:30am 29.3 33.9 26.0 82 2.3 NW 13 20 7 11 1007.9 - 0.2
24/11:00am 28.6 33.1 25.2 82 2.4 NNW 11 19 6 10 1008.3 - 0.0
24/10:30am 27.9 32.8 25.3 86 1.8 N 9 17 5 9 1008.9 - 0.0
24/10:00am 26.5 30.2 24.6 89 1.3 N 13 19 7 10 1009.4 - 0.0
24/09:30am 25.8 30.7 24.3 91 1.0 NNW 6 11 3 6 1008.9 - 0.0
24/09:00am 25.2 29.7 24.0 93 0.8 N 7 15 4 8 1008.9 1008.7 30.0
24/08:30am 24.8 29.3 24.0 95 0.5 NNE 7 15 4 8 1009.0 - 30.0
24/08:00am 24.7 29.4 23.9 95 0.5 N 6 9 3 5 1008.6 - 30.0
24/07:30am 25.0 27.8 23.6 92 1.0 N 15 24 8 13 1009.0 - 30.0
24/07:24am 25.1 28.7 23.8 92 0.9 N 11 19 6 10 1008.9 - 29.8
24/07:00am 24.7 26.9 24.3 98 0.3 WNW 20 30 11 16 1008.8 - 25.2
24/06:57am 24.9 29.8 24.6 98 0.2 NNE 7 22 4 12 1008.4 - 21.0
24/06:30am 24.7 29.9 24.2 97 0.3 E 4 6 2 3 1007.2 - 19.0
24/06:00am 24.7 29.9 24.2 97 0.3 NE 4 6 2 3 1006.5 1006.3 19.0
24/05:30am 24.8 29.4 24.1 96 0.5 NE 7 11 4 6 1006.3 - 19.0
24/05:00am 25.0 29.1 23.9 94 0.8 N 9 15 5 8 1006.2 - 19.0
24/04:30am 24.8 29.7 24.3 97 0.3 N 6 7 3 4 1006.5 - 19.0
24/04:00am 25.1 29.4 24.3 95 0.6 NNW 9 11 5 6 1006.3 - 18.8
24/03:41am 24.9 28.7 24.0 95 0.6 N 11 17 6 9 1006.1 - 18.8
24/03:30am 24.8 28.5 23.9 95 0.6 N 11 19 6 10 1006.3 - 18.8
24/03:00am 25.6 28.3 25.1 97 0.3 WNW 20 32 11 17 1006.4 1006.2 7.6
24/02:45am 25.1 30.6 24.7 98 0.3 NNW 4 13 2 7 1006.0 - 4.8
24/02:30am 25.1 30.6 24.6 97 0.3 NNE 4 6 2 3 1005.9 - 4.2
24/02:00am 25.3 30.1 24.5 95 0.6 NW 7 15 4 8 1006.0 - 4.2
24/01:30am 25.1 30.2 24.7 98 0.3 NNE 6 9 3 5 1006.5 - 4.0
24/01:22am 25.1 30.2 24.7 98 0.3 NNE 6 11 3 6 1006.4 - 4.0
24/01:03am 25.2 30.2 24.8 98 0.3 NNE 7 13 4 7 1007.1 - 4.0
24/01:00am 25.2 30.2 24.8 98 0.3 NNE 7 11 4 6 1007.1 - 3.8
24/12:30am 25.2 30.3 24.7 97 0.3 NE 6 9 3 5 1007.2 - 3.6
24/12:00am 25.3 30.5 24.8 97 0.3 NE 6 9 3 5 1007.4 1007.2 3.6
 
Date/Time
EST
Temp
°C
App
Temp
°C
Dew
Point
Rel
Hum
%
Delta-T
°C
Wind Press
QNH
hPa
Press
MSL
hPa
Rain
since 9 am
mm
Dir
 
Spd
km/h
Gust
km/h
Spd
kts
Gust
kts
23/11:30pm 25.3 30.5 24.8 97 0.3 NE 6 7 3 4 1007.6 - 3.6
23/11:00pm 25.4 30.6 24.8 96 0.4 NNE 6 9 3 5 1007.3 - 3.6
23/10:30pm 25.3 30.4 24.7 96 0.4 NE 6 7 3 4 1007.1 - 3.6
23/10:28pm 25.3 30.4 24.7 96 0.4 NE 6 7 3 4 1007.1 - 3.6
23/10:09pm 25.3 30.9 24.8 97 0.3 NE 4 6 2 3 1007.0 - 3.6
23/10:00pm 25.4 30.6 24.8 96 0.4 ENE 6 7 3 4 1006.9 - 3.2
23/09:30pm 25.5 30.7 24.8 96 0.5 NE 6 7 3 4 1007.0 - 3.2
23/09:00pm 25.6 30.9 24.9 96 0.5 NNE 6 9 3 5 1006.5 1006.3 3.2
23/08:30pm 25.6 31.2 24.9 96 0.5 N 4 6 2 3 1006.3 - 3.2
23/08:00pm 25.7 30.7 24.8 95 0.6 N 7 13 4 7 1006.1 - 3.2
23/07:30pm 25.3 30.2 24.7 96 0.4 N 7 9 4 5 1005.8 - 3.2
23/07:00pm 25.4 30.8 24.5 95 0.6 N 4 6 2 3 1004.8 - 3.2
23/06:30pm 25.5 30.9 24.5 94 0.7 N 4 6 2 3 1004.5 - 3.2
23/06:00pm 25.5 30.5 24.5 94 0.7 N 6 9 3 5 1004.6 1004.4 3.2
23/05:30pm 25.4 30.5 24.6 95 0.6 N 6 9 3 5 1004.6 - 3.2
23/05:00pm 25.3 29.7 24.5 95 0.6 N 9 13 5 7 1004.6 - 3.2
23/04:30pm 25.3 28.5 24.4 95 0.6 NNW 15 20 8 11 1004.7 - 3.2
23/04:00pm 25.3 27.7 24.3 94 0.7 NW 19 26 10 14 1005.0 - 2.4
23/03:30pm 26.6 28.5 23.8 84 1.9 NNW 20 32 11 17 1005.0 - 1.2
23/03:00pm 27.9 30.5 22.7 73 3.5 NNW 13 17 7 9 1005.0 1004.8 1.2
23/02:30pm 27.6 30.3 22.1 72 3.7 N 11 19 6 10 1005.1 - 1.2
23/02:00pm 27.6 30.0 22.2 72 3.6 NW 13 19 7 10 1005.5 - 1.2
23/01:30pm 27.5 30.2 22.8 75 3.2 WNW 13 20 7 11 1006.0 - 1.0
23/01:00pm 27.4 28.8 23.6 80 2.6 NW 22 32 12 17 1006.2 - 1.0
23/12:30pm 27.4 30.2 24.3 83 2.1 WNW 17 22 9 12 1006.3 - 1.0
23/12:00pm 27.4 30.6 24.3 83 2.2 WNW 15 26 8 14 1007.2 1007.0 1.0
23/11:48am 27.1 30.3 24.4 85 1.9 WNW 15 22 8 12 1007.4 - 1.0
23/11:30am 26.8 31.1 24.9 89 1.3 WNW 11 19 6 10 1007.1 - 1.0
23/11:00am 25.2 30.7 24.7 97 0.3 NNW 4 6 2 3 1007.2 - 1.0
23/10:48am 24.8 30.8 24.3 97 0.3 CALM 0 4 0 2 1007.3 - 1.0
23/10:30am 24.7 29.8 24.1 96 0.4 N 4 7 2 4 1007.5 - 1.0
23/10:00am 24.1 29.4 23.7 98 0.3 N 2 6 1 3 1007.3 - 0.6
23/09:42am 23.8 29.3 23.4 98 0.3 CALM 0 2 0 1 1007.1 - 0.6
23/09:30am 23.8 29.0 23.5 98 0.2 N 2 4 1 2 1007.0 - 0.4
23/09:29am 23.8 29.0 23.5 98 0.2 N 2 4 1 2 1007.1 - 0.4
23/09:14am 23.8 28.2 23.5 98 0.2 NE 6 9 3 5 1007.3 - 0.0
23/09:00am 23.8 28.0 23.5 98 0.2 NE 7 11 4 6 1007.4 1007.2 48.0
23/08:53am 23.8 27.6 23.5 98 0.2 NE 9 13 5 7 1007.5 - 47.4
23/08:30am 23.8 28.2 23.4 98 0.3 E 6 11 3 6 1007.3 - 46.0
23/08:00am 23.9 26.9 23.4 97 0.3 S 13 24 7 13 1007.5 - 32.2
23/07:44am 24.1 26.2 23.1 94 0.7 SSW 17 35 9 19 1007.6 - 25.8
23/07:41am 24.5 26.5 23.0 91 1.0 S 17 35 9 19 1007.3 - 22.0
23/07:30am 24.8 28.7 24.2 96 0.4 S 11 22 6 12 1006.7 - 22.0
23/07:00am 24.8 29.6 24.1 96 0.5 NNE 6 7 3 4 1006.5 - 22.0
23/06:30am 24.7 29.4 23.9 95 0.5 NNE 6 11 3 6 1006.1 - 22.0
23/06:00am 24.7 28.8 23.9 95 0.5 NNE 9 19 5 10 1006.4 1006.2 21.8
23/05:51am 24.6 28.6 23.8 95 0.5 NNE 9 15 5 8 1006.3 - 21.8
23/05:30am 24.3 28.9 23.8 97 0.3 NE 6 7 3 4 1005.9 - 21.6
23/05:27am 24.3 29.3 23.8 97 0.3 NE 4 7 2 4 1005.8 - 21.6
23/05:12am 24.2 28.7 23.7 97 0.3 E 6 7 3 4 1005.3 - 21.6
23/05:00am 24.2 28.5 23.6 96 0.4 ENE 7 11 4 6 1005.1 - 21.6
23/04:59am 24.1 28.4 23.6 97 0.3 ENE 7 13 4 7 1005.0 - 21.6
23/04:30am 24.1 28.4 23.6 97 0.3 ENE 7 13 4 7 1005.2 - 21.2
23/04:00am 24.2 27.8 23.8 98 0.3 E 11 19 6 10 1005.7 - 21.0
23/03:30am 24.6 29.9 23.7 95 0.6 ENE 2 6 1 3 1006.5 - 20.4
23/03:29am 24.6 29.8 23.6 94 0.7 NE 2 6 1 3 1006.6 - 20.4
23/03:00am 24.7 30.1 23.9 95 0.5 S 2 6 1 3 1006.4 1006.2 19.4
23/02:50am 24.8 29.5 23.9 95 0.6 SSW 6 15 3 8 1006.1 - 19.0
23/02:36am 24.6 27.3 24.1 97 0.3 WSW 17 32 9 17 1006.6 - 17.8
23/02:30am 24.8 27.1 23.4 92 1.0 W 17 33 9 18 1006.6 - 14.6
23/02:00am 25.5 30.6 24.6 95 0.6 WNW 6 13 3 7 1006.5 - 8.4
23/01:49am 25.3 30.9 24.8 97 0.3 WNW 4 7 2 4 1006.6 - 8.0
23/01:30am 25.1 30.0 24.3 95 0.6 W 6 9 3 5 1006.5 - 7.4
23/01:15am 25.2 29.9 24.3 95 0.6 NNW 7 9 4 5 1006.5 - 7.2
23/01:00am 25.1 28.6 24.2 95 0.6 NW 13 20 7 11 1006.7 - 6.8
23/12:30am 24.4 27.4 23.4 94 0.7 NNW 13 17 7 9 1007.3 - 5.2
23/12:15am 25.6 26.8 23.8 90 1.2 NW 24 35 13 19 1007.6 - 3.2
23/12:00am 26.1 31.6 24.0 88 1.4 SE 2 6 1 3 1007.2 1007.0 3.0
 
Date/Time
EST
Temp
°C
App
Temp
°C
Dew
Point
Rel
Hum
%
Delta-T
°C
Wind Press
QNH
hPa
Press
MSL
hPa
Rain
since 9 am
mm
Dir
 
Spd
km/h
Gust
km/h
Spd
kts
Gust
kts
22/11:30pm 26.4 31.3 23.7 85 1.9 N 4 7 2 4 1007.6 - 3.0
22/11:00pm 26.7 30.6 23.0 80 2.5 WNW 7 13 4 7 1007.6 - 3.0
22/10:30pm 26.2 30.0 23.4 84 1.9 WNW 9 15 5 8 1007.4 - 3.0
22/10:00pm 27.8 30.5 22.8 74 3.4 W 13 28 7 15 1006.9 - 3.0
22/09:30pm 26.2 32.1 24.7 91 1.0 NNW 2 6 1 3 1006.6 - 3.0
22/09:00pm 25.8 30.7 24.4 92 1.0 W 6 11 3 6 1005.4 1005.2 3.0
22/08:30pm 25.9 29.0 24.1 90 1.2 NNW 15 20 8 11 1004.8 - 3.0
22/08:00pm 26.5 29.0 23.8 85 1.9 NNW 17 26 9 14 1004.0 - 3.0
22/07:30pm 25.6 28.4 24.3 92 0.9 N 17 26 9 14 1003.7 - 3.0
22/07:00pm 26.2 28.8 24.6 91 1.1 NW 19 26 10 14 1004.5 - 3.0
22/06:38pm 25.7 29.4 24.6 94 0.8 NW 13 22 7 12 1004.8 - 2.8
22/06:30pm 25.6 28.1 24.4 93 0.8 WNW 19 28 10 15 1004.9 - 2.6
22/06:19pm 26.2 28.5 24.4 90 1.2 W 20 35 11 19 1004.9 - 2.6
22/06:00pm 26.8 29.8 24.6 88 1.5 NNW 17 24 9 13 1004.0 1003.8 2.4
22/05:30pm 27.6 28.5 24.0 81 2.5 NW 26 35 14 19 1004.4 - 2.4
22/05:22pm 27.9 28.5 24.2 80 2.6 NW 28 46 15 25 1004.4 - 2.4
22/05:00pm 28.1 30.1 25.1 84 2.1 NW 24 35 13 19 1003.9 - 2.4
22/04:30pm 29.3 31.2 24.4 75 3.4 NW 22 41 12 22 1004.2 - 2.4
22/04:00pm 29.2 30.3 24.9 77 3.0 NNW 28 41 15 22 1004.2 - 2.4
22/03:30pm 29.4 30.2 24.5 75 3.4 NNW 28 41 15 22 1004.0 - 2.4
22/03:06pm 30.0 29.4 24.4 72 3.9 NNW 35 56 19 30 1003.9 - 2.4
22/03:00pm 30.1 29.1 24.3 71 4.1 NW 37 48 20 26 1003.9 1003.7 2.4
22/02:42pm 30.0 30.4 25.0 74 3.5 NW 32 50 17 27 1004.2 - 2.4
22/02:30pm 30.3 30.4 24.6 71 4.0 NNW 32 48 17 26 1004.2 - 2.4
22/01:58pm 31.0 31.4 25.1 71 4.2 NW 32 50 17 27 1004.4 - 2.4

Other Formats:

Comma delimited format used in spreadsheet applications
http://www.bom.gov.au/fwo/IDQ60801/IDQ60801.94170.axf

JavaScript Object Notation format (JSON) in row-major order
http://www.bom.gov.au/fwo/IDQ60801/IDQ60801.94170.json